createdAt,value
2023-03-17T00:00:21.617Z,40.95
2023-03-17T00:01:21.597Z,42.15
2023-03-17T00:02:21.585Z,42.35
2023-03-17T00:03:21.587Z,41.35
2023-03-17T00:04:21.629Z,40.76
2023-03-17T00:05:21.663Z,41.55
2023-03-17T00:06:21.567Z,41.35
2023-03-17T00:07:21.470Z,40.95
2023-03-17T00:08:21.463Z,41.55
2023-03-17T00:09:21.431Z,43.74
2023-03-17T00:10:21.450Z,41.35
2023-03-17T00:11:21.456Z,41.55
2023-03-17T00:12:21.405Z,42.15
2023-03-17T00:13:21.394Z,41.55
2023-03-17T00:14:21.399Z,42.54
2023-03-17T00:15:21.427Z,40.56
2023-03-17T00:16:21.447Z,42.35
2023-03-17T00:17:21.399Z,40.16
2023-03-17T00:18:21.451Z,41.75
2023-03-17T00:19:21.335Z,41.95
2023-03-17T00:20:21.341Z,41.15
2023-03-17T00:21:21.331Z,37.77
2023-03-17T00:22:21.341Z,41.95
2023-03-17T00:23:21.324Z,42.54
2023-03-17T00:24:21.306Z,41.75
2023-03-17T00:25:21.260Z,41.55
2023-03-17T00:26:21.291Z,42.35
2023-03-17T00:27:21.249Z,44.33
2023-03-17T00:28:21.292Z,41.95
2023-03-17T00:29:21.309Z,42.15
2023-03-17T00:30:21.231Z,42.54
2023-03-17T00:31:21.397Z,42.54
2023-03-17T00:32:21.205Z,42.94
2023-03-17T00:33:21.212Z,41.55
2023-03-17T00:34:21.188Z,41.95
2023-03-17T00:35:21.198Z,41.35
2023-03-17T00:36:21.141Z,41.95
2023-03-17T00:37:21.138Z,43.34
2023-03-17T00:38:21.135Z,42.15
2023-03-17T00:39:21.306Z,41.75
2023-03-17T00:40:21.154Z,42.54
2023-03-17T00:41:21.127Z,42.15
2023-03-17T00:42:21.077Z,41.35
2023-03-17T00:43:21.100Z,42.35
2023-03-17T00:44:21.325Z,41.75
2023-03-17T00:45:21.206Z,42.94
2023-03-17T00:46:21.086Z,41.15
2023-03-17T00:47:21.165Z,43.14
2023-03-17T00:48:21.074Z,42.54
2023-03-17T00:49:22.753Z,42.35
2023-03-17T00:50:21.009Z,41.75
2023-03-17T00:51:21.097Z,42.74
2023-03-17T00:52:21.045Z,42.74
2023-03-17T00:53:20.977Z,43.34
2023-03-17T00:54:21.006Z,43.54
2023-03-17T00:55:20.977Z,41.95
2023-03-17T00:56:20.994Z,41.75
2023-03-17T00:57:20.934Z,42.15
2023-03-17T00:58:20.994Z,41.95
2023-03-17T00:59:21.008Z,42.15
2023-03-17T01:00:20.904Z,41.95
2023-03-17T01:01:21.018Z,41.95
2023-03-17T01:02:20.968Z,41.95
2023-03-17T01:03:20.892Z,42.54
2023-03-17T01:04:20.854Z,42.35
2023-03-17T01:05:21.022Z,41.55
2023-03-17T01:06:20.846Z,42.94
2023-03-17T01:07:20.853Z,41.75
2023-03-17T01:08:20.802Z,42.15
2023-03-17T01:09:20.856Z,41.95
2023-03-17T01:10:20.896Z,42.15
2023-03-17T01:11:20.813Z,41.55
2023-03-17T01:12:20.817Z,41.75
2023-03-17T01:13:20.757Z,42.35
2023-03-17T01:14:20.792Z,42.54
2023-03-17T01:15:21.073Z,41.55
2023-03-17T01:16:20.734Z,42.15
2023-03-17T01:17:20.715Z,41.75
2023-03-17T01:18:20.759Z,42.35
2023-03-17T01:19:21.010Z,41.35
2023-03-17T01:20:20.670Z,42.15
2023-03-17T01:21:20.690Z,41.35
2023-03-17T01:22:20.689Z,42.15
2023-03-17T01:23:20.670Z,40.95
2023-03-17T01:24:20.771Z,41.35
2023-03-17T01:25:20.678Z,41.75
2023-03-17T01:26:20.667Z,41.95
2023-03-17T01:27:20.660Z,42.35
2023-03-17T01:28:20.622Z,42.35
2023-03-17T01:29:20.691Z,41.95
2023-03-17T01:30:20.630Z,42.35
2023-03-17T01:31:20.747Z,42.35
2023-03-17T01:32:20.626Z,42.15
2023-03-17T01:33:20.575Z,41.55
2023-03-17T01:34:20.564Z,41.75
2023-03-17T01:35:20.524Z,40.95
2023-03-17T01:36:20.607Z,42.15
2023-03-17T01:37:20.502Z,42.35
2023-03-17T01:38:20.510Z,41.95
2023-03-17T01:39:20.509Z,41.95
2023-03-17T01:40:20.728Z,42.15
2023-03-17T01:41:20.590Z,41.95
2023-03-17T01:42:20.534Z,41.95
2023-03-17T01:43:20.453Z,41.75
2023-03-17T01:44:20.483Z,42.94
2023-03-17T01:45:20.440Z,42.15
2023-03-17T01:46:20.500Z,41.15
2023-03-17T01:47:20.432Z,41.95
2023-03-17T01:48:20.453Z,41.35
2023-03-17T01:49:20.448Z,41.75
2023-03-17T01:50:20.385Z,42.54
2023-03-17T01:51:20.361Z,41.75
2023-03-17T01:52:20.390Z,42.35
2023-03-17T01:53:20.402Z,41.75
2023-03-17T01:54:20.561Z,41.95
2023-03-17T01:55:20.321Z,42.35
2023-03-17T01:56:20.610Z,42.15
2023-03-17T01:57:20.420Z,42.35
2023-03-17T01:58:20.304Z,41.95
2023-03-17T01:59:20.319Z,41.95
2023-03-17T02:00:20.339Z,41.75
2023-03-17T02:01:20.303Z,40.95
2023-03-17T02:02:20.262Z,41.95
2023-03-17T02:03:20.262Z,41.55
2023-03-17T02:04:20.268Z,41.95
2023-03-17T02:05:20.278Z,41.95
2023-03-17T02:06:20.236Z,40.95
2023-03-17T02:07:20.304Z,41.15
2023-03-17T02:08:20.345Z,42.15
2023-03-17T02:09:20.874Z,41.55
2023-03-17T02:10:20.328Z,42.15
2023-03-17T02:11:20.178Z,42.15
2023-03-17T02:12:20.164Z,41.75
2023-03-17T02:13:20.141Z,42.15
2023-03-17T02:14:20.175Z,41.75
2023-03-17T02:15:20.140Z,41.35
2023-03-17T02:16:20.135Z,41.55
2023-03-17T02:17:20.116Z,41.15
2023-03-17T02:18:20.105Z,41.75
2023-03-17T02:19:20.109Z,42.15
2023-03-17T02:20:20.085Z,42.35
2023-03-17T02:21:20.074Z,41.35
2023-03-17T02:22:20.085Z,41.75
2023-03-17T02:23:20.000Z,41.55
2023-03-17T02:24:20.037Z,41.95
2023-03-17T02:25:20.044Z,41.35
2023-03-17T02:26:20.046Z,41.75
2023-03-17T02:27:20.000Z,41.95
2023-03-17T02:28:19.984Z,41.55
2023-03-17T02:29:19.993Z,41.35
2023-03-17T02:30:20.023Z,41.55
2023-03-17T02:31:20.184Z,41.15
2023-03-17T02:32:19.952Z,41.35
2023-03-17T02:33:19.955Z,40.95
2023-03-17T02:34:19.951Z,40.95
2023-03-17T02:35:19.930Z,41.75
2023-03-17T02:36:19.940Z,40.76
2023-03-17T02:37:19.902Z,41.15
2023-03-17T02:38:19.963Z,41.95
2023-03-17T02:39:19.894Z,41.55
2023-03-17T02:40:19.890Z,42.94
2023-03-17T02:41:19.892Z,41.75
2023-03-17T02:42:19.857Z,40.76
2023-03-17T02:43:19.832Z,41.75
2023-03-17T02:44:19.850Z,41.35
2023-03-17T02:45:19.812Z,41.55
2023-03-17T02:46:19.825Z,41.55
2023-03-17T02:47:19.764Z,41.75
2023-03-17T02:48:19.951Z,41.15
2023-03-17T02:49:19.763Z,41.55
2023-03-17T02:50:20.353Z,40.36
2023-03-17T02:51:19.750Z,41.35
2023-03-17T02:52:19.774Z,41.75
2023-03-17T02:53:19.735Z,41.95
2023-03-17T02:54:19.716Z,41.95
2023-03-17T02:55:20.642Z,41.55
2023-03-17T02:56:19.681Z,39.36
2023-03-17T02:57:19.819Z,41.55
2023-03-17T02:58:19.686Z,43.34
2023-03-17T02:59:19.803Z,41.35
2023-03-17T03:00:19.660Z,40.95
2023-03-17T03:01:19.669Z,43.14
2023-03-17T03:02:19.647Z,41.75
2023-03-17T03:03:19.640Z,41.75
2023-03-17T03:04:19.630Z,40.36
2023-03-17T03:05:19.632Z,41.75
2023-03-17T03:06:19.626Z,41.95
2023-03-17T03:07:19.664Z,41.35
2023-03-17T03:08:19.593Z,42.54
2023-03-17T03:09:19.628Z,41.75
2023-03-17T03:10:19.605Z,41.75
2023-03-17T03:11:19.564Z,42.15
2023-03-17T03:12:19.708Z,41.55
2023-03-17T03:13:19.487Z,41.75
2023-03-17T03:14:19.493Z,41.75
2023-03-17T03:15:19.549Z,41.95
2023-03-17T03:16:19.640Z,41.55
2023-03-17T03:17:19.475Z,42.15
2023-03-17T03:18:19.516Z,42.54
2023-03-17T03:19:19.481Z,41.95
2023-03-17T03:20:19.570Z,41.95
2023-03-17T03:21:19.460Z,42.54
2023-03-17T03:22:19.454Z,41.35
2023-03-17T03:23:19.419Z,42.35
2023-03-17T03:24:19.424Z,42.35
2023-03-17T03:25:19.442Z,41.95
2023-03-17T03:26:19.442Z,42.74
2023-03-17T03:27:19.396Z,42.35
2023-03-17T03:28:19.363Z,41.55
2023-03-17T03:29:19.338Z,41.55
2023-03-17T03:30:19.397Z,41.15
2023-03-17T03:31:19.397Z,42.15
2023-03-17T03:32:19.319Z,42.15
2023-03-17T03:33:19.344Z,41.95
2023-03-17T03:34:19.344Z,41.15
2023-03-17T03:35:19.333Z,41.95
2023-03-17T03:36:19.314Z,42.15
2023-03-17T03:37:19.270Z,42.15
2023-03-17T03:38:19.331Z,41.95
2023-03-17T03:39:19.252Z,41.95
2023-03-17T03:40:19.331Z,41.95
2023-03-17T03:41:19.250Z,41.75
2023-03-17T03:42:19.236Z,42.15
2023-03-17T03:43:23.320Z,41.55
2023-03-17T03:44:19.193Z,42.35
2023-03-17T03:45:19.182Z,42.15
2023-03-17T03:46:19.227Z,42.35
2023-03-17T03:47:19.238Z,41.75
2023-03-17T03:48:19.194Z,41.15
2023-03-17T03:49:19.197Z,41.95
2023-03-17T03:50:19.146Z,42.35
2023-03-17T03:51:19.119Z,41.75
2023-03-17T03:52:19.129Z,42.74
2023-03-17T03:53:19.176Z,41.55
2023-03-17T03:54:19.196Z,42.15
2023-03-17T03:55:19.110Z,41.75
2023-03-17T03:56:19.078Z,42.35
2023-03-17T03:57:19.056Z,42.35
2023-03-17T03:58:19.039Z,42.15
2023-03-17T03:59:19.046Z,41.95
2023-03-17T04:00:19.071Z,41.35
2023-03-17T04:01:19.000Z,42.15
2023-03-17T04:02:19.101Z,42.35
2023-03-17T04:03:19.003Z,42.15
2023-03-17T04:04:19.035Z,42.15
2023-03-17T04:05:18.974Z,42.54
2023-03-17T04:06:18.986Z,42.35
2023-03-17T04:07:18.982Z,41.55
2023-03-17T04:08:19.007Z,43.74
2023-03-17T04:09:18.959Z,42.74
2023-03-17T04:10:19.041Z,41.95
2023-03-17T04:11:18.929Z,41.75
2023-03-17T04:12:18.922Z,42.54
2023-03-17T04:13:18.905Z,42.54
2023-03-17T04:14:18.885Z,42.74
2023-03-17T04:15:18.878Z,41.95
2023-03-17T04:16:18.940Z,42.74
2023-03-17T04:17:18.825Z,42.94
2023-03-17T04:18:18.836Z,42.54
2023-03-17T04:19:18.876Z,42.54
2023-03-17T04:20:18.807Z,42.94
2023-03-17T04:21:18.770Z,42.54
2023-03-17T04:22:18.820Z,42.15
2023-03-17T04:23:18.765Z,42.74
2023-03-17T04:24:18.783Z,42.94
2023-03-17T04:25:19.162Z,42.54
2023-03-17T04:26:18.984Z,42.54
2023-03-17T04:27:18.818Z,41.95
2023-03-17T04:28:18.729Z,42.35
2023-03-17T04:29:18.693Z,42.15
2023-03-17T04:30:18.721Z,42.15
2023-03-17T04:31:18.732Z,42.54
2023-03-17T04:32:18.673Z,43.14
2023-03-17T04:33:18.678Z,42.94
2023-03-17T04:34:18.706Z,42.94
2023-03-17T04:35:18.659Z,42.15
2023-03-17T04:36:18.727Z,42.54
2023-03-17T04:37:18.680Z,42.54
2023-03-17T04:38:18.631Z,42.54
2023-03-17T04:39:18.638Z,42.74
2023-03-17T04:40:18.603Z,42.15
2023-03-17T04:41:18.674Z,42.35
2023-03-17T04:42:18.590Z,42.74
2023-03-17T04:43:18.602Z,42.54
2023-03-17T04:44:18.623Z,42.35
2023-03-17T04:45:18.604Z,42.94
2023-03-17T04:46:18.623Z,42.74
2023-03-17T04:47:18.537Z,43.34
2023-03-17T04:48:18.585Z,42.94
2023-03-17T04:49:18.623Z,42.35
2023-03-17T04:50:18.735Z,42.15
2023-03-17T04:51:18.606Z,42.94
2023-03-17T04:52:18.474Z,42.54
2023-03-17T04:53:18.481Z,42.15
2023-03-17T04:54:18.431Z,42.35
2023-03-17T04:55:18.421Z,41.55
2023-03-17T04:56:18.519Z,42.54
2023-03-17T04:57:18.509Z,42.74
2023-03-17T04:58:29.796Z,42.74
2023-03-17T04:59:19.439Z,42.35
2023-03-17T05:00:18.446Z,42.94
2023-03-17T05:01:18.459Z,42.94
2023-03-17T05:02:18.443Z,42.15
2023-03-17T05:03:26.768Z,42.74
2023-03-17T05:04:31.219Z,41.95
2023-03-17T05:05:19.374Z,42.74
2023-03-17T05:06:18.375Z,42.74
2023-03-17T05:07:18.334Z,42.35
2023-03-17T05:08:18.287Z,44.33
2023-03-17T05:09:18.244Z,44.14
2023-03-17T05:10:18.227Z,42.54
2023-03-17T05:11:18.460Z,43.14
2023-03-17T05:12:18.282Z,42.74
2023-03-17T05:13:18.265Z,43.14
2023-03-17T05:14:18.238Z,41.95
2023-03-17T05:15:18.229Z,42.74
2023-03-17T05:16:18.310Z,43.14
2023-03-17T05:17:18.206Z,42.74
2023-03-17T05:18:18.202Z,43.34
2023-03-17T05:19:18.189Z,43.54
2023-03-17T05:20:18.136Z,43.54
2023-03-17T05:21:18.126Z,43.34
2023-03-17T05:22:18.170Z,43.34
2023-03-17T05:23:18.134Z,42.94
2023-03-17T05:24:18.110Z,42.94
2023-03-17T05:25:18.118Z,43.74
2023-03-17T05:26:18.094Z,43.14
2023-03-17T05:27:18.116Z,42.74
2023-03-17T05:28:18.143Z,42.94
2023-03-17T05:29:19.033Z,42.94
2023-03-17T05:30:18.077Z,43.34
2023-03-17T05:31:18.021Z,44.33
2023-03-17T05:32:18.037Z,43.14
2023-03-17T05:33:18.051Z,43.74
2023-03-17T05:34:18.023Z,42.54
2023-03-17T05:35:17.955Z,42.54
2023-03-17T05:36:17.968Z,42.35
2023-03-17T05:37:18.032Z,43.54
2023-03-17T05:38:18.001Z,42.94
2023-03-17T05:39:17.964Z,42.74
2023-03-17T05:40:17.952Z,44.53
2023-03-17T05:41:17.966Z,43.14
2023-03-17T05:42:17.927Z,42.54
2023-03-17T05:43:17.979Z,42.94
2023-03-17T05:44:17.976Z,44.73
2023-03-17T05:45:17.933Z,43.54
2023-03-17T05:46:20.272Z,44.14
2023-03-17T05:47:17.934Z,44.14
2023-03-17T05:48:17.848Z,43.14
2023-03-17T05:49:17.872Z,43.14
2023-03-17T05:50:17.856Z,42.54
2023-03-17T05:51:17.824Z,43.14
2023-03-17T05:52:17.900Z,42.94
2023-03-17T05:53:17.809Z,42.74
2023-03-17T05:54:18.338Z,42.74
2023-03-17T05:55:17.785Z,42.54
2023-03-17T05:56:17.781Z,43.74
2023-03-17T05:57:18.389Z,42.74
2023-03-17T05:58:17.777Z,42.74
2023-03-17T05:59:17.724Z,42.94
2023-03-17T06:00:17.733Z,42.54
2023-03-17T06:01:17.703Z,42.54
2023-03-17T06:02:18.104Z,42.15
2023-03-17T06:03:17.771Z,42.54
2023-03-17T06:04:17.657Z,42.54
2023-03-17T06:05:17.745Z,41.75
2023-03-17T06:06:17.662Z,42.54
2023-03-17T06:07:17.890Z,42.54
2023-03-17T06:08:17.666Z,42.35
2023-03-17T06:09:17.652Z,42.54
2023-03-17T06:10:17.639Z,41.95
2023-03-17T06:11:17.644Z,41.95
2023-03-17T06:12:17.664Z,42.74
2023-03-17T06:13:17.618Z,42.54
2023-03-17T06:14:17.579Z,42.35
2023-03-17T06:15:17.597Z,42.54
2023-03-17T06:16:17.595Z,42.54
2023-03-17T06:17:17.644Z,42.35
2023-03-17T06:18:17.600Z,42.94
2023-03-17T06:19:17.588Z,43.14
2023-03-17T06:20:17.981Z,42.35
2023-03-17T06:21:17.601Z,41.55
2023-03-17T06:22:17.532Z,43.34
2023-03-17T06:23:17.486Z,43.74
2023-03-17T06:24:17.476Z,42.35
2023-03-17T06:25:17.472Z,42.15
2023-03-17T06:26:17.511Z,43.34
2023-03-17T06:27:17.442Z,42.15
2023-03-17T06:28:17.469Z,42.54
2023-03-17T06:29:17.438Z,42.15
2023-03-17T06:30:17.422Z,42.54
2023-03-17T06:31:17.436Z,42.15
2023-03-17T06:32:20.842Z,41.95
2023-03-17T06:33:17.410Z,42.54
2023-03-17T06:34:17.440Z,41.95
2023-03-17T06:35:17.353Z,42.15
2023-03-17T06:36:17.362Z,42.35
2023-03-17T06:37:17.399Z,42.54
2023-03-17T06:38:17.364Z,43.14
2023-03-17T06:39:17.338Z,43.34
2023-03-17T06:40:17.350Z,43.94
2023-03-17T06:41:17.304Z,43.34
2023-03-17T06:42:17.305Z,42.94
2023-03-17T06:43:17.353Z,42.74
2023-03-17T06:44:17.385Z,43.14
2023-03-17T06:45:17.275Z,42.94
2023-03-17T06:46:17.275Z,42.74
2023-03-17T06:47:17.209Z,44.14
2023-03-17T06:48:17.277Z,44.14
2023-03-17T06:49:17.311Z,43.34
2023-03-17T06:50:17.240Z,44.14
2023-03-17T06:51:17.238Z,43.14
2023-03-17T06:52:17.381Z,43.34
2023-03-17T06:53:17.207Z,42.94
2023-03-17T06:54:17.163Z,43.34
2023-03-17T06:55:17.380Z,44.53
2023-03-17T06:56:29.388Z,43.94
2023-03-17T06:57:18.164Z,43.54
2023-03-17T06:58:17.261Z,43.34
2023-03-17T06:59:17.154Z,43.74
2023-03-17T07:00:17.112Z,44.14
2023-03-17T07:01:17.147Z,44.14
2023-03-17T07:02:17.086Z,43.54
2023-03-17T07:03:18.051Z,40.36
2023-03-17T07:04:17.177Z,40.95
2023-03-17T07:05:17.093Z,40.36
2023-03-17T07:06:17.125Z,40.56
2023-03-17T07:07:17.207Z,40.16
2023-03-17T07:08:17.145Z,40.56
2023-03-17T07:09:17.094Z,40.16
2023-03-17T07:10:17.006Z,40.95
2023-03-17T07:11:17.036Z,39.76
2023-03-17T07:12:16.988Z,39.76
2023-03-17T07:13:17.000Z,41.55
2023-03-17T07:14:17.461Z,39.36
2023-03-17T07:15:17.005Z,40.56
2023-03-17T07:16:17.144Z,39.96
2023-03-17T07:17:17.030Z,40.36
2023-03-17T07:18:17.085Z,40.76
2023-03-17T07:19:16.988Z,41.55
2023-03-17T07:20:17.076Z,41.55
2023-03-17T07:21:16.896Z,40.76
2023-03-17T07:22:16.891Z,39.96
2023-03-17T07:23:16.949Z,40.56
2023-03-17T07:24:16.869Z,40.16
2023-03-17T07:25:16.902Z,40.56
2023-03-17T07:26:16.915Z,40.76
2023-03-17T07:27:16.970Z,50.30
2023-03-17T07:28:16.861Z,41.75
2023-03-17T07:29:17.007Z,40.95
2023-03-17T07:30:16.849Z,49.30
2023-03-17T07:31:16.856Z,40.76
2023-03-17T07:32:16.766Z,40.36
2023-03-17T07:33:16.831Z,40.36
2023-03-17T07:34:16.826Z,40.36
2023-03-17T07:35:16.722Z,39.76
2023-03-17T07:36:16.795Z,37.18
2023-03-17T07:37:16.821Z,39.36
2023-03-17T07:38:18.272Z,39.96
2023-03-17T07:39:17.465Z,40.76
2023-03-17T07:40:16.754Z,40.76
2023-03-17T07:41:16.759Z,40.36
2023-03-17T07:42:16.706Z,40.76
2023-03-17T07:43:16.669Z,39.96
2023-03-17T07:44:16.626Z,39.36
2023-03-17T07:45:16.641Z,42.15
2023-03-17T07:46:16.703Z,40.56
2023-03-17T07:47:16.661Z,40.36
2023-03-17T07:48:16.626Z,39.76
2023-03-17T07:49:17.272Z,39.56
2023-03-17T07:50:16.612Z,40.16
2023-03-17T07:51:16.633Z,39.36
2023-03-17T07:52:16.690Z,41.15
2023-03-17T07:53:16.559Z,40.36
2023-03-17T07:54:16.503Z,40.95
2023-03-17T07:55:16.540Z,38.97
2023-03-17T07:56:16.538Z,39.76
2023-03-17T07:57:16.639Z,40.56
2023-03-17T07:58:16.565Z,40.36
2023-03-17T07:59:16.559Z,41.35
2023-03-17T08:00:16.530Z,39.76
2023-03-17T08:01:16.547Z,38.97
2023-03-17T08:02:16.639Z,40.16
2023-03-17T08:03:16.515Z,38.17
2023-03-17T08:04:16.424Z,39.17
2023-03-17T08:05:16.449Z,39.17
2023-03-17T08:06:16.385Z,39.36
2023-03-17T08:07:16.473Z,39.17
2023-03-17T08:08:16.440Z,38.77
2023-03-17T08:09:16.440Z,38.97
2023-03-17T08:10:16.341Z,39.17
2023-03-17T08:11:16.366Z,38.77
2023-03-17T08:12:16.337Z,40.76
2023-03-17T08:13:16.336Z,39.96
2023-03-17T08:14:16.327Z,40.36
2023-03-17T08:15:16.292Z,38.97
2023-03-17T08:16:16.376Z,38.37
2023-03-17T08:17:16.250Z,38.97
2023-03-17T08:18:16.342Z,39.17
2023-03-17T08:19:16.357Z,38.97
2023-03-17T08:20:16.233Z,39.36
2023-03-17T08:21:16.418Z,39.56
2023-03-17T08:22:16.379Z,36.78
2023-03-17T08:23:16.256Z,38.37
2023-03-17T08:24:16.224Z,39.56
2023-03-17T08:25:16.229Z,37.97
2023-03-17T08:26:16.367Z,38.77
2023-03-17T08:27:16.122Z,38.77
2023-03-17T08:28:16.112Z,35.59
2023-03-17T08:29:16.159Z,39.36
2023-03-17T08:30:16.132Z,37.77
2023-03-17T08:31:16.169Z,39.17
2023-03-17T08:32:16.122Z,38.77
2023-03-17T08:33:16.256Z,39.36
2023-03-17T08:34:16.109Z,37.57
2023-03-17T08:35:16.090Z,37.57
2023-03-17T08:36:16.103Z,37.77
2023-03-17T08:37:16.127Z,37.97
2023-03-17T08:38:16.128Z,37.57
2023-03-17T08:39:16.057Z,39.36
2023-03-17T08:40:16.120Z,38.77
2023-03-17T08:41:15.996Z,38.37
2023-03-17T08:42:15.971Z,37.77
2023-03-17T08:43:16.045Z,40.36
2023-03-17T08:44:15.980Z,39.17
2023-03-17T08:45:15.986Z,38.77
2023-03-17T08:46:16.100Z,37.77
2023-03-17T08:47:16.060Z,38.97
2023-03-17T08:48:16.009Z,39.17
2023-03-17T08:49:15.937Z,39.36
2023-03-17T08:50:16.057Z,38.97
2023-03-17T08:51:18.446Z,39.96
2023-03-17T08:52:15.944Z,39.36
2023-03-17T08:53:15.908Z,39.17
2023-03-17T08:54:15.929Z,40.36
2023-03-17T08:55:15.886Z,38.97
2023-03-17T08:56:15.842Z,39.76
2023-03-17T08:57:16.111Z,37.97
2023-03-17T08:58:15.922Z,40.76
2023-03-17T08:59:16.957Z,39.17
2023-03-17T09:00:15.927Z,39.36
2023-03-17T09:01:15.936Z,38.77
2023-03-17T09:02:15.839Z,39.96
2023-03-17T09:03:15.824Z,39.76
2023-03-17T09:04:15.798Z,38.37
2023-03-17T09:05:15.766Z,38.97
2023-03-17T09:06:15.767Z,39.56
2023-03-17T09:07:15.789Z,38.37
2023-03-17T09:08:15.798Z,39.17
2023-03-17T09:09:15.717Z,37.97
2023-03-17T09:10:16.462Z,39.56
2023-03-17T09:11:15.692Z,40.36
2023-03-17T09:12:15.738Z,39.96
2023-03-17T09:13:15.689Z,39.17
2023-03-17T09:14:15.697Z,39.96
2023-03-17T09:15:15.641Z,39.17
2023-03-17T09:16:15.762Z,37.57
2023-03-17T09:17:15.742Z,40.16
2023-03-17T09:18:15.707Z,38.77
2023-03-17T09:19:15.618Z,38.37
2023-03-17T09:20:15.640Z,38.37
2023-03-17T09:21:15.612Z,38.77
2023-03-17T09:22:15.689Z,39.17
2023-03-17T09:23:15.640Z,40.16
2023-03-17T09:24:15.559Z,38.57
2023-03-17T09:25:15.633Z,37.97
2023-03-17T09:26:15.521Z,38.37
2023-03-17T09:27:15.516Z,38.17
2023-03-17T09:28:15.593Z,39.17
2023-03-17T09:29:15.499Z,39.76
2023-03-17T09:30:15.532Z,38.57
2023-03-17T09:31:15.863Z,39.56
2023-03-17T09:32:15.513Z,38.57
2023-03-17T09:33:15.524Z,40.36
2023-03-17T09:34:15.598Z,38.77
2023-03-17T09:35:15.494Z,38.77
2023-03-17T09:36:15.555Z,36.58
2023-03-17T09:37:15.454Z,38.77
2023-03-17T09:38:15.393Z,38.57
2023-03-17T09:39:15.409Z,37.77
2023-03-17T09:40:15.380Z,38.17
2023-03-17T09:41:15.390Z,38.57
2023-03-17T09:42:15.868Z,38.57
2023-03-17T09:43:15.523Z,37.57
2023-03-17T09:44:15.402Z,38.37
2023-03-17T09:45:15.440Z,38.57
2023-03-17T09:46:15.579Z,38.97
2023-03-17T09:47:15.309Z,34.00
2023-03-17T09:48:15.371Z,37.77
2023-03-17T09:49:15.281Z,37.38
2023-03-17T09:50:15.267Z,38.77
2023-03-17T09:51:15.290Z,38.37
2023-03-17T09:52:15.584Z,38.37
2023-03-17T09:53:15.251Z,38.57
2023-03-17T09:54:15.221Z,39.76
2023-03-17T09:55:15.232Z,39.17
2023-03-17T09:56:15.247Z,37.97
2023-03-17T09:57:15.214Z,37.57
2023-03-17T09:58:15.212Z,37.77
2023-03-17T09:59:15.178Z,38.57
2023-03-17T10:00:15.120Z,38.57
2023-03-17T10:01:15.132Z,39.36
2023-03-17T10:02:15.140Z,38.77
2023-03-17T10:03:15.213Z,38.97
2023-03-17T10:04:17.534Z,38.97
2023-03-17T10:05:15.196Z,40.16
2023-03-17T10:06:15.120Z,39.56
2023-03-17T10:07:15.108Z,39.36
2023-03-17T10:08:29.605Z,39.76
2023-03-17T10:09:16.039Z,38.97
2023-03-17T10:10:15.117Z,38.57
2023-03-17T10:11:15.017Z,39.76
2023-03-17T10:12:14.984Z,38.37
2023-03-17T10:13:14.985Z,38.97
2023-03-17T10:14:15.015Z,37.97
2023-03-17T10:15:15.363Z,37.18
2023-03-17T10:16:15.104Z,38.37
2023-03-17T10:17:14.979Z,35.98
2023-03-17T10:18:15.055Z,38.57
2023-03-17T10:19:15.135Z,37.38
2023-03-17T10:20:14.927Z,37.97
2023-03-17T10:21:15.015Z,39.36
2023-03-17T10:22:14.943Z,37.77
2023-03-17T10:23:14.868Z,38.37
2023-03-17T10:24:14.940Z,36.98
2023-03-17T10:25:14.944Z,37.97
2023-03-17T10:26:14.883Z,39.96
2023-03-17T10:27:15.186Z,38.77
2023-03-17T10:28:14.864Z,37.77
2023-03-17T10:29:14.917Z,38.17
2023-03-17T10:30:14.864Z,38.37
2023-03-17T10:31:15.138Z,36.78
2023-03-17T10:32:14.860Z,38.17
2023-03-17T10:33:15.056Z,38.57
2023-03-17T10:34:14.957Z,38.37
2023-03-17T10:35:14.828Z,38.17
2023-03-17T10:36:14.868Z,39.96
2023-03-17T10:37:14.796Z,37.77
2023-03-17T10:38:14.877Z,38.57
2023-03-17T10:39:14.968Z,38.17
2023-03-17T10:40:14.781Z,39.56
2023-03-17T10:41:15.250Z,38.17
2023-03-17T10:42:14.696Z,37.97
2023-03-17T10:43:14.924Z,40.16
2023-03-17T10:44:15.093Z,39.36
2023-03-17T10:45:14.661Z,39.17
2023-03-17T10:46:14.680Z,39.36
2023-03-17T10:47:14.837Z,35.79
2023-03-17T10:48:14.607Z,38.77
2023-03-17T10:49:14.728Z,38.17
2023-03-17T10:50:15.029Z,38.17
2023-03-17T10:51:14.732Z,39.36
2023-03-17T10:52:14.734Z,36.98
2023-03-17T10:53:14.609Z,38.37
2023-03-17T10:54:14.583Z,38.77
2023-03-17T10:55:14.594Z,38.97
2023-03-17T10:56:14.548Z,36.98
2023-03-17T10:57:14.719Z,39.36
2023-03-17T10:58:15.129Z,37.38
2023-03-17T10:59:14.723Z,38.17
2023-03-17T11:00:14.483Z,39.17
2023-03-17T11:01:14.497Z,38.97
2023-03-17T11:02:14.942Z,37.77
2023-03-17T11:03:14.576Z,39.76
2023-03-17T11:04:14.579Z,38.37
2023-03-17T11:05:14.521Z,38.37
2023-03-17T11:06:14.523Z,38.97
2023-03-17T11:07:14.573Z,38.97
2023-03-17T11:08:15.368Z,39.17
2023-03-17T11:09:14.421Z,38.37
2023-03-17T11:10:14.866Z,36.78
2023-03-17T11:11:14.407Z,38.97
2023-03-17T11:12:14.439Z,37.97
2023-03-17T11:13:14.723Z,38.77
2023-03-17T11:14:14.383Z,38.17
2023-03-17T11:15:14.652Z,38.57
2023-03-17T11:16:14.381Z,37.77
2023-03-17T11:17:14.329Z,39.56
2023-03-17T11:18:14.340Z,38.17
2023-03-17T11:19:14.307Z,37.18
2023-03-17T11:20:14.317Z,38.97
2023-03-17T11:21:14.258Z,38.97
2023-03-17T11:22:14.289Z,37.97
2023-03-17T11:23:14.290Z,38.97
2023-03-17T11:24:14.263Z,39.17
2023-03-17T11:25:14.266Z,38.37
2023-03-17T11:26:14.252Z,38.57
2023-03-17T11:27:15.908Z,38.77
2023-03-17T11:28:14.263Z,37.97
2023-03-17T11:29:14.209Z,38.17
2023-03-17T11:30:14.873Z,39.17
2023-03-17T11:31:14.304Z,39.17
2023-03-17T11:32:14.204Z,40.36
2023-03-17T11:33:14.287Z,38.97
2023-03-17T11:34:14.278Z,37.97
2023-03-17T11:35:14.165Z,39.17
2023-03-17T11:36:14.265Z,37.97
2023-03-17T11:37:14.205Z,38.17
2023-03-17T11:38:14.107Z,38.77
2023-03-17T11:39:14.075Z,38.17
2023-03-17T11:40:14.079Z,36.78
2023-03-17T11:41:14.159Z,37.18
2023-03-17T11:42:14.105Z,37.97
2023-03-17T11:43:14.065Z,37.57
2023-03-17T11:44:14.016Z,37.57
2023-03-17T11:45:14.111Z,39.76
2023-03-17T11:46:14.109Z,37.77
2023-03-17T11:47:14.081Z,37.38
2023-03-17T11:48:14.000Z,37.77
2023-03-17T11:49:13.968Z,38.17
2023-03-17T11:50:14.016Z,37.18
2023-03-17T11:51:13.945Z,37.18
2023-03-17T11:52:14.118Z,37.97
2023-03-17T11:53:14.027Z,36.58
2023-03-17T11:54:14.089Z,38.77
2023-03-17T11:55:13.997Z,39.36
2023-03-17T11:56:13.884Z,37.18
2023-03-17T11:57:13.910Z,36.58
2023-03-17T11:58:13.919Z,37.97
2023-03-17T11:59:13.859Z,37.77
2023-03-17T12:00:13.887Z,38.17
2023-03-17T12:01:13.828Z,36.78
2023-03-17T12:02:13.914Z,38.17
2023-03-17T12:03:13.824Z,37.97
2023-03-17T12:04:13.821Z,37.57
2023-03-17T12:05:13.817Z,37.18
2023-03-17T12:06:14.070Z,37.57
2023-03-17T12:07:13.812Z,38.17
2023-03-17T12:08:13.743Z,36.78
2023-03-17T12:09:13.738Z,37.77
2023-03-17T12:10:13.974Z,37.57
2023-03-17T12:11:13.727Z,38.57
2023-03-17T12:12:15.840Z,36.78
2023-03-17T12:13:13.729Z,37.18
2023-03-17T12:14:13.810Z,37.57
2023-03-17T12:15:13.689Z,37.77
2023-03-17T12:16:13.832Z,37.38
2023-03-17T12:17:13.725Z,38.17
2023-03-17T12:18:13.898Z,38.17
2023-03-17T12:19:14.042Z,37.97
2023-03-17T12:20:13.623Z,38.37
2023-03-17T12:21:13.644Z,38.17
2023-03-17T12:22:13.613Z,37.77
2023-03-17T12:23:13.580Z,37.38
2023-03-17T12:24:13.616Z,36.78
2023-03-17T12:25:13.621Z,37.38
2023-03-17T12:26:13.542Z,36.98
2023-03-17T12:27:13.544Z,36.78
2023-03-17T12:28:13.665Z,37.97
2023-03-17T12:29:13.637Z,38.37
2023-03-17T12:30:13.544Z,37.77
2023-03-17T12:31:13.556Z,37.77
2023-03-17T12:32:13.517Z,38.17
2023-03-17T12:33:13.527Z,38.37
2023-03-17T12:34:13.558Z,37.57
2023-03-17T12:35:13.455Z,38.17
2023-03-17T12:36:13.561Z,38.17
2023-03-17T12:37:13.528Z,37.97
2023-03-17T12:38:18.729Z,36.98
2023-03-17T12:39:13.652Z,36.18
2023-03-17T12:40:13.857Z,38.97
2023-03-17T12:41:13.452Z,38.17
2023-03-17T12:42:13.700Z,37.38
2023-03-17T12:43:13.373Z,38.17
2023-03-17T12:44:13.424Z,37.57
2023-03-17T12:45:13.418Z,38.17
2023-03-17T12:46:13.399Z,36.98
2023-03-17T12:47:13.399Z,37.77
2023-03-17T12:48:13.311Z,36.78
2023-03-17T12:49:13.287Z,37.97
2023-03-17T12:50:13.380Z,37.57
2023-03-17T12:51:13.430Z,38.37
2023-03-17T12:52:13.319Z,37.38